Time;durP1;ratioP1;P1;durP2;ratioP2;P2;SDS_P1;SDS_P2;PMS_P1;PMS_P2;Temp;Humidity;BMP_temperature;BMP_pressure;BME280_temperature;BME280_humidity;BME280_pressure;Samples;Min_cycle;Max_cycle;Signal;HPM_P1;HPM_P2
2024/01/30 00:01:51;;;;;;;10.23;4.90;;;-1.00;99.90;;;;;;5023442;28;20029;-32
2024/01/30 00:04:17;;;;;;;7.55;4.25;;;-1.00;99.90;;;;;;5027900;28;20033;-34
2024/01/30 00:06:43;;;;;;;5.10;3.78;;;-1.00;99.90;;;;;;5024149;28;20150;-33
2024/01/30 00:09:09;;;;;;;6.18;3.75;;;-1.00;99.90;;;;;;5027960;28;20033;-32
2024/01/30 00:11:35;;;;;;;5.93;4.70;;;-1.00;99.90;;;;;;5034000;28;20037;-41
2024/01/30 00:14:01;;;;;;;4.45;3.92;;;-1.00;99.90;;;;;;5024875;28;20032;-40
2024/01/30 00:16:27;;;;;;;4.65;4.00;;;-1.00;99.90;;;;;;5022388;28;20030;-35
2024/01/30 00:18:53;;;;;;;5.05;4.45;;;-1.00;99.90;;;;;;5018731;28;20033;-38
2024/01/30 00:21:20;;;;;;;6.53;4.68;;;-1.00;99.90;;;;;;5018631;28;20056;-32
2024/01/30 00:23:47;;;;;;;4.93;3.90;;;-1.00;99.90;;;;;;5010983;28;20034;-32
2024/01/30 00:26:14;;;;;;;4.72;4.18;;;-1.00;99.90;;;;;;5023014;28;20546;-34
2024/01/30 00:28:43;;;;;;;6.32;4.57;;;-1.10;99.90;;;;;;5035358;28;20080;-33
2024/01/30 00:31:17;;;;;;;;;;;-1.00;99.90;;;;;;5025145;28;20128;-35
2024/01/30 00:33:43;;;;;;;4.38;3.97;;;-1.10;99.90;;;;;;5006052;28;19921;-32
2024/01/30 00:36:10;;;;;;;5.15;4.65;;;-1.20;99.90;;;;;;5025368;28;20034;-32
2024/01/30 00:38:37;;;;;;;5.63;3.97;;;-1.20;99.90;;;;;;5027410;28;20033;-32
2024/01/30 00:41:03;;;;;;;5.45;4.88;;;-1.20;99.90;;;;;;5025941;28;20163;-34
2024/01/30 00:43:32;;;;;;;5.78;4.20;;;-1.20;99.90;;;;;;5027107;28;20032;-33
2024/01/30 00:46:02;;;;;;;14.45;5.65;;;-1.30;99.90;;;;;;5024706;28;20255;-36
2024/01/30 00:48:27;;;;;;;6.68;4.43;;;-1.30;99.90;;;;;;5018342;28;20025;-33
2024/01/30 00:50:53;;;;;;;5.72;4.80;;;-1.30;99.90;;;;;;5025850;28;20068;-35
2024/01/30 00:53:20;;;;;;;8.30;4.75;;;-1.30;99.90;;;;;;5016608;28;20443;-32
2024/01/30 00:55:49;;;;;;;5.68;5.05;;;-1.30;99.90;;;;;;5003347;28;20029;-38
2024/01/30 00:58:15;;;;;;;;;;;-1.30;99.90;;;;;;5022871;28;20665;-33
2024/01/30 01:00:40;;;;;;;5.65;3.58;;;-1.40;99.90;;;;;;5027458;28;19909;-35
2024/01/30 01:03:06;;;;;;;5.90;4.00;;;-1.50;99.90;;;;;;5027112;28;20045;-33
2024/01/30 01:05:32;;;;;;;5.05;3.78;;;-1.50;99.90;;;;;;5029486;28;20026;-33
2024/01/30 01:07:57;;;;;;;4.60;4.05;;;-1.60;99.90;;;;;;5026036;28;20391;-38
2024/01/30 01:10:23;;;;;;;3.78;3.42;;;-1.60;99.90;;;;;;5023659;28;20368;-34
2024/01/30 01:12:49;;;;;;;5.15;4.35;;;-1.50;99.90;;;;;;5022214;28;20444;-32
2024/01/30 01:15:15;;;;;;;4.72;4.07;;;-1.40;99.90;;;;;;5006601;28;20037;-34
2024/01/30 01:17:41;;;;;;;4.75;4.35;;;-1.40;99.90;;;;;;5028582;28;20391;-33
2024/01/30 01:20:08;;;;;;;4.55;3.35;;;-1.30;99.90;;;;;;5025122;28;20026;-41
2024/01/30 01:22:34;;;;;;;3.90;3.50;;;-1.30;99.90;;;;;;5005506;28;20082;-40
2024/01/30 01:25:00;;;;;;;5.43;3.67;;;-1.50;99.90;;;;;;5026874;28;20033;-35
2024/01/30 01:27:26;;;;;;;6.75;3.65;;;-1.50;99.90;;;;;;5004863;28;20021;-42
2024/01/30 01:29:52;;;;;;;7.65;4.68;;;-1.50;99.90;;;;;;5027816;28;20056;-41
2024/01/30 01:32:18;;;;;;;5.28;4.70;;;-1.60;99.90;;;;;;5028121;28;20056;-40
2024/01/30 01:34:44;;;;;;;5.85;4.65;;;-1.60;99.90;;;;;;5028265;28;20025;-41
2024/01/30 01:37:09;;;;;;;6.93;3.60;;;-1.60;99.90;;;;;;5023372;28;20037;-41
2024/01/30 01:39:35;;;;;;;5.45;4.63;;;-1.60;99.90;;;;;;5028376;28;20033;-40
2024/01/30 01:42:01;;;;;;;3.80;3.50;;;-1.60;99.90;;;;;;5023651;28;20068;-40
2024/01/30 01:44:27;;;;;;;3.30;2.97;;;-1.60;99.90;;;;;;5025800;28;20462;-41
2024/01/30 01:46:54;;;;;;;6.22;4.40;;;-1.70;99.90;;;;;;5024511;28;20022;-40
2024/01/30 01:49:21;;;;;;;5.40;4.43;;;-1.70;99.90;;;;;;5028239;28;20037;-41
2024/01/30 01:51:48;;;;;;;4.35;3.95;;;-1.60;99.90;;;;;;5031226;28;20564;-36
2024/01/30 01:54:15;;;;;;;4.95;4.00;;;-1.70;99.90;;;;;;5031747;28;20408;-40
2024/01/30 01:56:43;;;;;;;4.85;4.45;;;-1.70;99.90;;;;;;5038174;28;20017;-38
2024/01/30 01:59:08;;;;;;;4.60;3.85;;;-1.70;99.90;;;;;;5030542;28;20063;-41
2024/01/30 02:01:37;;;;;;;4.38;3.03;;;-1.70;99.90;;;;;;5022748;28;20431;-38
2024/01/30 02:04:02;;;;;;;4.82;3.38;;;-1.70;99.90;;;;;;5025532;28;20437;-38
2024/01/30 02:06:28;;;;;;;4.20;3.15;;;-1.70;99.90;;;;;;5024061;28;20025;-40
2024/01/30 02:08:54;;;;;;;10.57;4.10;;;-1.70;99.90;;;;;;5024824;28;20025;-40
2024/01/30 02:11:20;;;;;;;4.07;3.65;;;-1.70;99.90;;;;;;5027422;28;20482;-39
2024/01/30 02:13:46;;;;;;;4.10;3.70;;;-1.70;99.90;;;;;;5026846;28;20025;-40
2024/01/30 02:16:11;;;;;;;4.60;3.83;;;-1.70;99.90;;;;;;5034437;28;20068;-38
2024/01/30 02:18:41;;;;;;;3.67;2.83;;;-1.60;99.90;;;;;;5029119;28;20027;-40
2024/01/30 02:21:08;;;;;;;2.92;2.72;;;-1.70;99.90;;;;;;5024049;28;20447;-39
2024/01/30 02:23:34;;;;;;;7.03;3.85;;;-1.80;99.90;;;;;;5022159;28;20038;-40
2024/01/30 02:26:00;;;;;;;5.53;3.22;;;-1.90;99.90;;;;;;5025048;28;20475;-37
2024/01/30 02:28:27;;;;;;;8.57;3.65;;;-2.00;99.90;;;;;;5024897;28;20039;-40
2024/01/30 02:30:53;;;;;;;6.75;4.30;;;-2.10;99.90;;;;;;5022121;28;20037;-41
2024/01/30 02:33:18;;;;;;;5.25;3.03;;;-2.10;99.90;;;;;;5022646;28;20107;-39
2024/01/30 02:35:44;;;;;;;4.30;3.67;;;-2.20;99.90;;;;;;5023581;28;20029;-41
2024/01/30 02:38:10;;;;;;;4.68;3.38;;;-2.10;99.90;;;;;;5023208;28;20029;-40
2024/01/30 02:40:35;;;;;;;6.60;4.72;;;-2.10;99.90;;;;;;5026265;28;20040;-42
2024/01/30 02:43:02;;;;;;;4.80;4.13;;;-2.00;99.90;;;;;;5021572;28;20021;-40
2024/01/30 02:45:28;;;;;;;5.32;4.80;;;-2.00;99.90;;;;;;5022977;28;20144;-41
2024/01/30 02:47:54;;;;;;;9.20;4.13;;;-2.00;99.90;;;;;;5002836;28;20051;-39
2024/01/30 02:50:19;;;;;;;5.78;4.97;;;-1.90;99.90;;;;;;5023878;28;20071;-42
2024/01/30 02:52:45;;;;;;;5.47;4.50;;;-1.90;99.90;;;;;;5021253;28;20037;-39
2024/01/30 02:55:11;;;;;;;3.30;2.90;;;-1.90;99.90;;;;;;5021815;28;20040;-40
2024/01/30 02:57:38;;;;;;;6.82;3.80;;;-2.00;99.90;;;;;;5023794;28;20108;-39
2024/01/30 03:00:05;;;;;;;3.80;2.88;;;-2.00;99.90;;;;;;5023698;28;20120;-39
2024/01/30 03:02:32;;;;;;;3.63;2.83;;;-2.00;99.90;;;;;;5018973;28;20112;-40
2024/01/30 03:04:58;;;;;;;12.07;4.15;;;-2.10;99.90;;;;;;5027524;28;20112;-36
2024/01/30 03:07:23;;;;;;;7.20;3.33;;;-2.00;99.90;;;;;;5024380;28;20034;-43
2024/01/30 03:09:49;;;;;;;3.53;2.72;;;-2.10;99.90;;;;;;5037753;28;20497;-42
2024/01/30 03:12:15;;;;;;;3.55;3.28;;;-2.20;99.90;;;;;;5023778;28;20476;-40
2024/01/30 03:14:40;;;;;;;2.72;2.63;;;-2.30;99.90;;;;;;5021646;28;20048;-41
2024/01/30 03:17:06;;;;;;;4.53;3.38;;;-2.40;99.90;;;;;;5025975;28;20182;-39
2024/01/30 03:19:32;;;;;;;4.43;3.20;;;-2.50;99.90;;;;;;5019820;28;20036;-38
2024/01/30 03:21:57;;;;;;;4.68;3.88;;;-2.40;99.90;;;;;;5023095;28;20259;-42
2024/01/30 03:24:23;;;;;;;3.95;3.65;;;-2.40;99.90;;;;;;5026313;28;20108;-41
2024/01/30 03:26:49;;;;;;;4.75;4.10;;;-2.40;99.90;;;;;;5005718;28;20034;-42
2024/01/30 03:29:15;;;;;;;3.65;3.35;;;-2.30;99.90;;;;;;5024127;28;20021;-41
2024/01/30 03:31:41;;;;;;;4.95;3.08;;;-2.30;99.90;;;;;;5020248;28;20040;-40
2024/01/30 03:34:06;;;;;;;8.60;4.18;;;-2.30;99.90;;;;;;5019390;28;20499;-41
2024/01/30 03:36:34;;;;;;;3.00;2.78;;;-2.30;99.90;;;;;;5019079;28;20116;-37
2024/01/30 03:39:00;;;;;;;4.13;3.25;;;-2.40;99.90;;;;;;5023178;28;20036;-41
2024/01/30 03:41:26;;;;;;;5.47;3.17;;;-2.40;99.90;;;;;;5025570;28;20037;-41
2024/01/30 03:43:51;;;;;;;4.22;3.28;;;-2.30;99.90;;;;;;5025294;28;20030;-42
2024/01/30 03:46:17;;;;;;;4.18;2.33;;;-2.30;99.90;;;;;;5018605;28;20033;-41
2024/01/30 03:48:42;;;;;;;2.88;2.38;;;-2.30;99.90;;;;;;5020862;28;20633;-38
2024/01/30 03:51:14;;;;;;;4.43;3.63;;;-2.30;99.90;;;;;;5022084;28;20037;-33
2024/01/30 03:53:40;;;;;;;3.95;3.10;;;-2.30;99.90;;;;;;5019101;28;20102;-34
2024/01/30 03:56:06;;;;;;;3.63;2.78;;;-2.30;99.90;;;;;;5005797;28;20176;-35
2024/01/30 03:58:32;;;;;;;5.40;3.75;;;-2.30;99.90;;;;;;5018898;28;20038;-36
2024/01/30 04:00:58;;;;;;;2.33;2.20;;;-2.20;99.90;;;;;;5020412;28;20065;-36
2024/01/30 04:03:24;;;;;;;3.58;3.35;;;-2.20;99.90;;;;;;5019270;28;20060;-33
2024/01/30 04:05:51;;;;;;;4.68;2.40;;;-2.20;99.90;;;;;;5020274;28;20038;-33
2024/01/30 04:08:17;;;;;;;4.97;3.72;;;-2.20;99.90;;;;;;4996495;28;20110;-35
2024/01/30 04:10:43;;;;;;;4.55;2.97;;;-2.20;99.90;;;;;;5023136;28;20408;-35
2024/01/30 04:13:09;;;;;;;4.72;3.60;;;-2.20;99.90;;;;;;5023430;28;20064;-33
2024/01/30 04:15:35;;;;;;;5.45;3.45;;;-2.20;99.90;;;;;;5004303;28;20112;-34
2024/01/30 04:18:00;;;;;;;5.60;2.80;;;-2.30;99.90;;;;;;5002338;28;20116;-35
2024/01/30 04:20:26;;;;;;;5.68;3.70;;;-2.20;99.90;;;;;;5004657;28;20112;-33
2024/01/30 04:22:52;;;;;;;9.15;3.75;;;-2.20;99.90;;;;;;5022344;28;20486;-34
2024/01/30 04:25:17;;;;;;;4.95;4.05;;;-2.30;99.90;;;;;;5021228;28;20029;-36
2024/01/30 04:27:43;;;;;;;5.03;3.63;;;-2.30;99.90;;;;;;5024233;28;20033;-33
2024/01/30 04:30:09;;;;;;;4.93;3.58;;;-2.20;99.90;;;;;;5005285;28;20037;-34
2024/01/30 04:32:36;;;;;;;5.20;3.17;;;-2.30;99.90;;;;;;5032785;28;20052;-33
2024/01/30 04:35:03;;;;;;;4.28;3.13;;;-2.20;99.90;;;;;;5032787;28;20038;-34
2024/01/30 04:37:29;;;;;;;3.20;2.78;;;-2.20;99.90;;;;;;5015253;28;20030;-33
2024/01/30 04:39:55;;;;;;;3.83;3.40;;;-2.20;99.90;;;;;;5000912;28;20440;-36
2024/01/30 04:42:21;;;;;;;5.68;3.10;;;-2.20;99.90;;;;;;5000548;28;20057;-36
2024/01/30 04:44:46;;;;;;;6.07;4.40;;;-2.20;99.90;;;;;;5003971;28;20109;-33
2024/01/30 04:47:12;;;;;;;4.50;3.45;;;-2.20;99.90;;;;;;5004537;28;20041;-33
2024/01/30 04:49:41;;;;;;;4.65;3.45;;;-2.20;99.90;;;;;;5016952;28;20546;-36
2024/01/30 04:52:07;;;;;;;10.13;3.80;;;-2.10;99.90;;;;;;5001357;28;20033;-34
2024/01/30 04:54:34;;;;;;;4.13;3.67;;;-2.20;99.90;;;;;;5005383;28;20034;-33
2024/01/30 04:57:00;;;;;;;4.63;3.60;;;-2.20;99.90;;;;;;5000902;28;20131;-34
2024/01/30 04:59:26;;;;;;;3.05;2.85;;;-2.20;99.90;;;;;;5015056;28;20029;-37
2024/01/30 05:01:52;;;;;;;5.45;3.33;;;-2.20;99.90;;;;;;5033196;28;20057;-33
2024/01/30 05:04:17;;;;;;;4.18;3.45;;;-2.20;99.90;;;;;;5000883;28;20057;-33
2024/01/30 05:06:43;;;;;;;10.55;3.55;;;-2.20;99.90;;;;;;4999121;28;20026;-33
2024/01/30 05:09:09;;;;;;;3.35;3.08;;;-2.20;99.90;;;;;;5000800;28;20117;-36
2024/01/30 05:11:41;;;;;;;2.50;2.40;;;-2.20;99.90;;;;;;5001521;28;20467;-33
2024/01/30 05:14:08;;;;;;;3.75;3.30;;;-2.10;99.90;;;;;;5002775;28;20049;-34
2024/01/30 05:16:34;;;;;;;3.00;2.80;;;-2.20;99.90;;;;;;5001633;28;20759;-35
2024/01/30 05:19:00;;;;;;;5.90;4.03;;;-2.20;99.90;;;;;;5003227;28;20082;-35
2024/01/30 05:21:26;;;;;;;6.88;3.53;;;-2.20;99.90;;;;;;4999624;28;20152;-33
2024/01/30 05:23:51;;;;;;;4.32;3.95;;;-2.20;99.90;;;;;;5004796;28;20483;-34
2024/01/30 05:26:17;;;;;;;4.15;3.70;;;-2.20;99.90;;;;;;5009030;28;20026;-34
2024/01/30 05:28:46;;;;;;;4.43;4.07;;;-2.20;99.90;;;;;;5004972;28;20087;-33
2024/01/30 05:31:11;;;;;;;3.60;3.38;;;-2.20;99.90;;;;;;5004132;28;20034;-33
2024/01/30 05:33:37;;;;;;;5.25;3.55;;;-2.20;99.90;;;;;;5003333;28;20102;-34
2024/01/30 05:36:03;;;;;;;3.47;3.10;;;-2.20;99.90;;;;;;5003929;28;20026;-33
2024/01/30 05:38:30;;;;;;;5.85;4.45;;;-2.20;99.90;;;;;;5010237;28;20625;-32
2024/01/30 05:40:57;;;;;;;4.47;3.22;;;-2.20;99.90;;;;;;5021677;28;20093;-38
2024/01/30 05:43:23;;;;;;;3.17;2.97;;;-2.10;99.90;;;;;;5014010;28;20030;-32
2024/01/30 05:45:49;;;;;;;5.03;2.90;;;-2.10;99.90;;;;;;5015889;28;20084;-33
2024/01/30 05:48:15;;;;;;;2.97;2.75;;;-2.20;99.90;;;;;;5001717;28;20026;-33
2024/01/30 05:50:40;;;;;;;4.68;4.18;;;-2.20;99.90;;;;;;5004407;28;20030;-36
2024/01/30 05:53:06;;;;;;;4.43;3.40;;;-2.20;99.90;;;;;;5006093;28;20036;-32
2024/01/30 05:55:32;;;;;;;8.05;3.17;;;-2.20;99.90;;;;;;5001894;28;20036;-35
2024/01/30 05:57:57;;;;;;;3.65;3.35;;;-2.20;99.90;;;;;;5005100;28;20045;-38
2024/01/30 06:00:23;;;;;;;4.22;3.83;;;-2.30;99.90;;;;;;5005242;28;20026;-41
2024/01/30 06:02:49;;;;;;;8.13;4.93;;;-2.20;99.90;;;;;;5004467;28;20042;-41
2024/01/30 06:05:14;;;;;;;4.07;3.72;;;-2.20;99.90;;;;;;5001756;28;20034;-39
2024/01/30 06:07:40;;;;;;;6.65;4.43;;;-2.20;99.90;;;;;;5004229;28;20088;-42
2024/01/30 06:10:06;;;;;;;4.20;3.80;;;-2.20;99.90;;;;;;5004710;28;20589;-38
2024/01/30 06:12:32;;;;;;;8.48;3.92;;;-2.20;99.90;;;;;;5016533;28;20034;-39
2024/01/30 06:14:58;;;;;;;4.50;3.75;;;-2.20;99.90;;;;;;4999573;28;20033;-37
2024/01/30 06:17:23;;;;;;;3.55;2.65;;;-2.20;99.90;;;;;;5003000;28;20519;-36
2024/01/30 06:19:49;;;;;;;5.85;3.97;;;-2.30;99.90;;;;;;5002812;28;20027;-39
2024/01/30 06:22:16;;;;;;;5.20;2.75;;;-2.40;99.90;;;;;;5004962;28;20065;-40
2024/01/30 06:24:41;;;;;;;5.95;3.55;;;-2.50;99.90;;;;;;5004709;28;20503;-39
2024/01/30 06:27:07;;;;;;;5.50;3.75;;;-2.40;99.90;;;;;;5000608;28;20021;-39
2024/01/30 06:29:33;;;;;;;3.28;3.03;;;-2.50;99.90;;;;;;5003751;28;20045;-39
2024/01/30 06:31:58;;;;;;;3.85;2.92;;;-2.60;99.90;;;;;;5006021;28;20030;-36
2024/01/30 06:34:26;;;;;;;4.07;2.70;;;-2.60;99.90;;;;;;5027387;28;20108;-37
2024/01/30 06:36:51;;;;;;;4.38;2.78;;;-2.60;99.90;;;;;;5033652;28;20042;-38
2024/01/30 06:39:17;;;;;;;5.55;3.38;;;-2.60;99.90;;;;;;5025822;28;20113;-36
2024/01/30 06:41:42;;;;;;;2.92;2.72;;;-2.60;99.90;;;;;;5022274;28;20157;-39
2024/01/30 06:44:08;;;;;;;7.50;3.47;;;-2.70;99.90;;;;;;5025809;28;20471;-39
2024/01/30 06:46:35;;;;;;;4.35;3.95;;;-2.60;99.90;;;;;;5026374;28;20056;-40
2024/01/30 06:49:01;;;;;;;6.97;4.20;;;-2.50;99.90;;;;;;5026584;28;20433;-39
2024/01/30 06:51:26;;;;;;;4.53;4.13;;;-2.50;99.90;;;;;;5020648;28;20083;-40
2024/01/30 06:53:52;;;;;;;5.15;3.30;;;-2.50;99.90;;;;;;5029570;28;20037;-37
2024/01/30 06:56:20;;;;;;;5.47;4.07;;;-2.50;99.90;;;;;;5027026;28;20112;-37
2024/01/30 06:58:50;;;;;;;4.90;3.58;;;-2.50;99.90;;;;;;5025388;28;20032;-40
2024/01/30 07:01:16;;;;;;;2.50;2.30;;;-2.50;99.90;;;;;;5029460;28;20041;-41
2024/01/30 07:03:42;;;;;;;6.93;4.15;;;-2.40;99.90;;;;;;5028274;28;20022;-39
2024/01/30 07:06:08;;;;;;;5.40;3.20;;;-2.40;99.90;;;;;;5032625;28;20052;-38
2024/01/30 07:08:33;;;;;;;5.72;4.40;;;-2.40;99.90;;;;;;5024036;28;20728;-39
2024/01/30 07:10:59;;;;;;;5.80;3.72;;;-2.40;99.90;;;;;;5025330;28;20030;-36
2024/01/30 07:13:24;;;;;;;4.60;4.13;;;-2.30;99.90;;;;;;5024111;28;20067;-40
2024/01/30 07:15:50;;;;;;;4.57;3.88;;;-2.40;99.90;;;;;;5027613;28;20710;-39
2024/01/30 07:18:16;;;;;;;3.60;2.95;;;-2.30;99.90;;;;;;5028999;28;20657;-39
2024/01/30 07:20:45;;;;;;;4.90;3.28;;;-2.30;99.90;;;;;;5028583;28;20021;-32
2024/01/30 07:23:13;;;;;;;6.35;4.05;;;-2.40;99.90;;;;;;5027520;28;20025;-32
2024/01/30 07:25:41;;;;;;;6.35;4.10;;;-2.40;99.90;;;;;;5029055;28;20036;-32
2024/01/30 07:28:09;;;;;;;6.45;4.50;;;-2.40;99.90;;;;;;5027583;28;20360;-36
2024/01/30 07:30:35;;;;;;;5.43;4.10;;;-2.40;99.90;;;;;;5028453;28;20026;-34
2024/01/30 07:33:01;;;;;;;3.55;3.25;;;-2.40;99.90;;;;;;5042214;28;20059;-32
2024/01/30 07:35:27;;;;;;;5.63;3.33;;;-2.30;99.90;;;;;;5007628;28;20403;-32
2024/01/30 07:37:52;;;;;;;4.90;3.92;;;-2.30;99.90;;;;;;5026445;28;20104;-34
2024/01/30 07:40:18;;;;;;;5.78;3.25;;;-2.30;99.90;;;;;;5024935;28;20104;-37
2024/01/30 07:42:44;;;;;;;4.30;3.90;;;-2.20;99.90;;;;;;5025060;28;20032;-33
2024/01/30 07:45:10;;;;;;;6.35;3.88;;;-2.20;99.90;;;;;;5004896;28;20668;-35
2024/01/30 07:47:35;;;;;;;4.85;4.25;;;-2.20;99.90;;;;;;5041701;28;20044;-33
2024/01/30 07:50:01;;;;;;;6.00;4.25;;;-2.20;99.90;;;;;;5024725;28;20017;-33
2024/01/30 07:52:27;;;;;;;4.88;4.18;;;-2.20;99.90;;;;;;5026531;28;20065;-33
2024/01/30 07:54:52;;;;;;;2.65;2.45;;;-2.10;99.90;;;;;;5023642;28;20029;-32
2024/01/30 07:57:18;;;;;;;3.83;3.53;;;-2.10;99.90;;;;;;5009052;28;20029;-32
2024/01/30 07:59:44;;;;;;;8.30;3.35;;;-2.00;99.90;;;;;;5034706;28;20024;-33
2024/01/30 08:02:12;;;;;;;3.83;3.50;;;-2.00;99.90;;;;;;5009793;28;20129;-32
2024/01/30 08:04:37;;;;;;;7.10;3.03;;;-2.00;99.90;;;;;;5027849;28;20107;-33
2024/01/30 08:07:03;;;;;;;5.07;3.42;;;-1.90;99.90;;;;;;5024020;28;20510;-34
2024/01/30 08:09:29;;;;;;;3.65;3.33;;;-1.90;99.90;;;;;;5026307;28;21455;-33
2024/01/30 08:11:57;;;;;;;7.55;4.47;;;-1.80;99.90;;;;;;5027621;28;20033;-35
2024/01/30 08:14:23;;;;;;;7.30;4.57;;;-1.70;99.90;;;;;;5025151;28;20744;-33
2024/01/30 08:16:49;;;;;;;6.97;3.83;;;-1.70;99.90;;;;;;5026377;28;20030;-32
2024/01/30 08:19:15;;;;;;;3.78;3.40;;;-1.60;99.90;;;;;;5024488;28;20032;-33
2024/01/30 08:21:40;;;;;;;3.67;2.72;;;-1.50;99.90;;;;;;5027674;28;20049;-41
2024/01/30 08:24:07;;;;;;;3.33;3.00;;;-1.40;99.90;;;;;;5026277;28;20025;-40
2024/01/30 08:26:33;;;;;;;3.55;3.25;;;-1.40;99.90;;;;;;5030306;28;20037;-40
2024/01/30 08:28:59;;;;;;;9.02;3.72;;;-1.30;99.90;;;;;;5022531;28;20363;-38
2024/01/30 08:31:24;;;;;;;6.43;4.47;;;-1.30;99.90;;;;;;5029199;28;20187;-36
2024/01/30 08:33:53;;;;;;;2.33;2.22;;;-1.20;99.90;;;;;;5027993;28;20049;-33
2024/01/30 08:36:23;;;;;;;3.45;3.13;;;-1.20;99.90;;;;;;5029004;28;20122;-32
2024/01/30 08:38:59;;;;;;;3.42;3.10;;;-1.10;99.90;;;;;;5006467;28;20014;-33
2024/01/30 08:41:25;;;;;;;3.30;3.08;;;-1.00;99.90;;;;;;5028402;28;20033;-34
2024/01/30 08:43:52;;;;;;;4.85;3.53;;;-0.90;99.90;;;;;;5037477;28;20073;-33
2024/01/30 08:46:19;;;;;;;5.53;3.85;;;-0.90;99.90;;;;;;5009705;28;20037;-32
2024/01/30 08:48:47;;;;;;;9.15;3.83;;;-0.80;99.90;;;;;;5006301;28;20411;-33
2024/01/30 08:51:17;;;;;;;3.47;3.17;;;-0.60;99.90;;;;;;5026592;28;20546;-33
2024/01/30 08:53:42;;;;;;;3.05;2.85;;;-0.60;99.90;;;;;;5020504;28;20543;-34
2024/01/30 08:56:08;;;;;;;11.05;4.47;;;-0.60;99.90;;;;;;5009288;28;20068;-32
2024/01/30 08:58:34;;;;;;;4.22;3.33;;;-0.50;99.90;;;;;;5022977;28;20037;-41
2024/01/30 09:00:59;;;;;;;5.93;4.30;;;-0.40;99.90;;;;;;5025087;28;20376;-34
2024/01/30 09:03:25;;;;;;;8.73;4.80;;;-0.30;99.90;;;;;;5031153;28;20034;-42
2024/01/30 09:05:51;;;;;;;5.85;4.53;;;-0.20;99.90;;;;;;5034909;28;20115;-42
2024/01/30 09:08:16;;;;;;;4.78;3.35;;;-0.10;99.90;;;;;;5023024;28;20034;-41
2024/01/30 09:10:42;;;;;;;7.05;3.88;;;0.00;99.90;;;;;;5024955;28;20118;-42
2024/01/30 09:13:08;;;;;;;4.75;4.07;;;0.20;99.90;;;;;;5025773;28;20037;-42
2024/01/30 09:15:33;;;;;;;5.03;4.40;;;0.30;99.90;;;;;;5025548;28;20033;-37
2024/01/30 09:17:59;;;;;;;7.03;3.40;;;0.40;99.90;;;;;;5025258;28;20029;-37
2024/01/30 09:20:24;;;;;;;5.43;3.75;;;0.50;99.90;;;;;;5026359;28;20371;-40
2024/01/30 09:22:50;;;;;;;5.30;4.05;;;0.60;99.90;;;;;;5033086;28;20033;-40
2024/01/30 09:25:16;;;;;;;4.22;3.83;;;0.70;99.90;;;;;;5025211;28;20864;-42
2024/01/30 09:27:41;;;;;;;4.60;3.95;;;0.80;99.90;;;;;;5026908;28;20556;-40
2024/01/30 09:30:11;;;;;;;5.65;3.83;;;1.00;99.90;;;;;;5027027;28;20030;-32
2024/01/30 09:32:46;;;;;;;9.13;4.82;;;1.10;99.90;;;;;;5022034;28;20045;-36
2024/01/30 09:35:11;;;;;;;7.47;4.40;;;1.20;99.90;;;;;;5014680;28;20416;-32
2024/01/30 09:37:37;;;;;;;6.97;5.63;;;1.40;99.90;;;;;;5025231;28;20055;-35
2024/01/30 09:40:03;;;;;;;12.73;4.95;;;1.50;99.90;;;;;;5007547;28;20033;-39
2024/01/30 09:42:34;;;;;;;6.03;3.97;;;1.70;99.90;;;;;;5024570;28;20032;-40
2024/01/30 09:45:01;;;;;;;7.65;4.88;;;1.80;99.90;;;;;;5029456;28;20029;-40
2024/01/30 09:47:26;;;;;;;5.30;4.68;;;1.90;99.90;;;;;;5019681;28;20471;-40
2024/01/30 09:49:52;;;;;;;7.07;4.78;;;2.10;99.90;;;;;;5020957;28;20045;-40
2024/01/30 09:52:18;;;;;;;10.35;5.35;;;2.30;99.90;;;;;;5037875;28;20040;-40
2024/01/30 09:54:45;;;;;;;11.38;4.70;;;2.40;99.90;;;;;;5017851;28;20399;-38
2024/01/30 09:57:12;;;;;;;7.70;4.65;;;2.60;99.90;;;;;;5027673;28;20799;-40
2024/01/30 09:59:37;;;;;;;7.93;5.30;;;2.70;99.90;;;;;;5027506;28;20595;-39
2024/01/30 10:02:04;;;;;;;5.60;4.90;;;2.80;99.90;;;;;;5029575;28;20116;-39
2024/01/30 10:04:30;;;;;;;6.88;5.55;;;3.00;99.90;;;;;;5006888;28;20029;-40
2024/01/30 10:07:01;;;;;;;8.45;5.35;;;3.20;99.90;;;;;;5030617;28;20602;-36
2024/01/30 10:09:27;;;;;;;11.13;6.03;;;3.40;99.90;;;;;;5024363;28;20021;-36
2024/01/30 10:11:52;;;;;;;7.85;4.43;;;3.50;99.90;;;;;;5028204;28;20116;-38
2024/01/30 10:14:18;;;;;;;7.97;6.03;;;3.60;99.90;;;;;;5029676;28;20034;-40
2024/01/30 10:16:46;;;;;;;6.38;4.72;;;3.60;99.90;;;;;;5030399;28;20029;-40
2024/01/30 10:19:12;;;;;;;11.25;4.82;;;3.70;99.90;;;;;;5019270;28;20774;-37
2024/01/30 10:21:37;;;;;;;7.22;4.45;;;3.80;99.90;;;;;;5029635;28;20104;-38
2024/01/30 10:24:04;;;;;;;8.57;5.25;;;3.90;99.90;;;;;;5030374;28;20078;-38
2024/01/30 10:26:34;;;;;;;5.95;4.80;;;4.10;99.90;;;;;;5029168;28;20402;-38
2024/01/30 10:28:59;;;;;;;6.28;4.82;;;4.40;99.90;;;;;;5028517;28;20068;-38
2024/01/30 10:31:25;;;;;;;6.60;4.63;;;4.60;99.90;;;;;;5029573;28;20478;-39
2024/01/30 10:33:51;;;;;;;8.57;4.93;;;4.60;99.90;;;;;;5030573;28;20073;-39
2024/01/30 10:36:17;;;;;;;9.20;5.18;;;4.60;99.90;;;;;;5029471;28;20059;-39
2024/01/30 10:38:46;;;;;;;6.35;4.88;;;4.60;99.90;;;;;;5028800;28;20028;-37
2024/01/30 10:41:14;;;;;;;8.68;5.68;;;4.90;99.90;;;;;;5027266;28;20025;-42
2024/01/30 10:44:02;;;;;;;6.95;4.75;;;5.00;99.90;;;;;;5024234;28;20033;-40
2024/01/30 10:46:31;;;;;;;6.22;4.18;;;5.20;99.90;;;;;;5026175;28;20033;-42
2024/01/30 10:49:01;;;;;;;7.00;4.82;;;5.30;99.90;;;;;;5025407;28;20025;-37
2024/01/30 10:51:27;;;;;;;5.13;3.88;;;5.30;99.90;;;;;;5030298;28;20056;-42
2024/01/30 10:53:53;;;;;;;6.35;4.85;;;5.30;99.90;;;;;;5031806;28;20428;-40
2024/01/30 10:56:21;;;;;;;6.47;4.93;;;5.40;99.90;;;;;;5029921;28;20053;-42
2024/01/30 10:58:49;;;;;;;7.67;4.13;;;5.50;99.90;;;;;;5022911;28;20101;-40
2024/01/30 11:01:15;;;;;;;6.30;4.80;;;5.70;99.90;;;;;;5023232;28;20589;-40
2024/01/30 11:03:41;;;;;;;11.40;5.63;;;5.80;99.90;;;;;;5029527;28;20109;-42
2024/01/30 11:06:12;;;;;;;7.90;4.85;;;5.90;99.90;;;;;;5028014;28;20033;-33
2024/01/30 11:08:37;;;;;;;8.05;5.40;;;6.00;99.90;;;;;;5029393;28;20105;-34
2024/01/30 11:11:09;;;;;;;9.07;5.18;;;6.20;99.90;;;;;;5034535;28;20499;-39
2024/01/30 11:13:34;;;;;;;7.05;4.60;;;6.40;99.90;;;;;;5028890;28;20491;-41
2024/01/30 11:16:04;;;;;;;6.07;4.43;;;6.70;99.90;;;;;;5033778;28;20075;-37
2024/01/30 11:18:33;;;;;;;8.90;4.63;;;6.90;99.90;;;;;;5011357;28;20033;-40
2024/01/30 11:21:02;;;;;;;5.88;4.43;;;7.00;99.90;;;;;;5037144;28;20022;-35
2024/01/30 11:23:31;;;;;;;7.13;4.20;;;7.00;99.90;;;;;;5027797;28;20044;-40
2024/01/30 11:25:57;;;;;;;6.10;4.63;;;6.90;99.90;;;;;;5031596;28;20032;-34
2024/01/30 11:28:23;;;;;;;6.40;4.80;;;7.00;99.90;;;;;;5027628;28;20032;-39
2024/01/30 11:30:50;;;;;;;5.18;3.85;;;7.00;99.90;;;;;;5024264;28;20044;-41
2024/01/30 11:33:30;;;;;;;7.57;4.85;;;7.00;99.90;;;;;;5028863;28;20060;-39
2024/01/30 11:35:58;;;;;;;5.82;3.90;;;7.10;99.90;;;;;;5028345;28;20128;-33
2024/01/30 11:38:27;;;;;;;9.93;4.72;;;7.30;99.90;;;;;;5030488;28;20033;-42
2024/01/30 11:40:53;;;;;;;;;;;7.40;99.90;;;;;;5028812;28;20715;-40
2024/01/30 11:43:19;;;;;;;8.40;5.22;;;7.50;99.90;;;;;;5034579;28;19996;-41
2024/01/30 11:45:45;;;;;;;6.53;4.60;;;7.50;99.90;;;;;;5021377;28;20053;-37
2024/01/30 11:48:12;;;;;;;7.65;4.55;;;7.60;99.90;;;;;;5028003;28;20048;-42
2024/01/30 11:50:39;;;;;;;5.53;4.43;;;7.60;99.90;;;;;;5010301;28;20603;-40
2024/01/30 11:53:05;;;;;;;5.43;3.80;;;7.60;99.90;;;;;;5031897;28;20392;-42
2024/01/30 11:55:31;;;;;;;5.70;3.88;;;7.70;99.90;;;;;;5007878;28;20034;-40
2024/01/30 11:58:00;;;;;;;4.30;3.78;;;7.90;99.90;;;;;;5030266;28;20117;-40
2024/01/30 12:00:26;;;;;;;5.88;4.78;;;8.00;99.90;;;;;;5020510;28;20826;-37
2024/01/30 12:02:55;;;;;;;8.68;5.10;;;8.00;99.90;;;;;;5007597;28;20409;-41
2024/01/30 12:05:25;;;;;;;7.13;4.43;;;8.10;99.90;;;;;;5008292;28;20538;-41
2024/01/30 12:07:51;;;;;;;5.40;4.28;;;8.20;99.90;;;;;;5006549;28;20045;-39
2024/01/30 12:10:17;;;;;;;5.85;3.88;;;8.20;99.90;;;;;;5028273;28;20025;-41
2024/01/30 12:12:48;;;;;;;7.50;4.07;;;8.20;99.90;;;;;;5023627;28;20940;-38
2024/01/30 12:15:15;;;;;;;7.45;4.10;;;8.20;99.90;;;;;;5028210;28;20033;-39
2024/01/30 12:17:41;;;;;;;6.60;4.10;;;8.30;99.90;;;;;;5025928;28;20040;-38
2024/01/30 12:20:11;;;;;;;8.02;4.47;;;8.30;99.90;;;;;;5008186;28;20408;-41
2024/01/30 12:22:38;;;;;;;7.63;4.40;;;8.30;99.90;;;;;;5026626;28;20032;-36
2024/01/30 12:25:24;;;;;;;7.38;4.18;;;8.40;99.90;;;;;;5022514;28;20035;-39
2024/01/30 12:27:51;;;;;;;6.05;4.40;;;8.50;99.90;;;;;;5018978;28;20552;-40
2024/01/30 12:30:17;;;;;;;6.03;3.92;;;8.50;99.90;;;;;;5018549;28;20029;-36
2024/01/30 12:32:49;;;;;;;6.63;4.35;;;8.50;99.90;;;;;;5019671;28;20077;-39
2024/01/30 12:35:16;;;;;;;4.95;3.90;;;8.60;99.90;;;;;;5021210;28;20052;-41
2024/01/30 12:37:47;;;;;;;5.28;3.53;;;8.60;99.90;;;;;;5008614;28;20033;-36
2024/01/30 12:40:15;;;;;;;5.85;3.83;;;8.60;99.90;;;;;;5006850;28;20030;-39
2024/01/30 12:42:46;;;;;;;5.35;3.90;;;8.60;99.90;;;;;;5028112;28;20030;-42
2024/01/30 12:45:13;;;;;;;6.15;4.35;;;8.70;99.90;;;;;;5020092;28;20121;-39
2024/01/30 12:47:39;;;;;;;6.43;4.43;;;8.70;99.90;;;;;;5023912;28;20029;-39